createdAt,value
2024-01-11T00:00:03.734Z,21.12
2024-01-11T00:02:33.611Z,21.40
2024-01-11T00:05:03.490Z,21.08
2024-01-11T00:07:33.350Z,21.30
2024-01-11T00:10:04.771Z,22.67
2024-01-11T00:12:34.594Z,23.10
2024-01-11T00:15:06.625Z,23.41
2024-01-11T00:17:36.587Z,23.65
2024-01-11T00:20:06.733Z,23.90
2024-01-11T00:22:36.535Z,24.54
2024-01-11T00:25:14.810Z,24.57
2024-01-11T00:27:44.500Z,24.78
2024-01-11T00:30:14.369Z,24.86
2024-01-11T00:32:44.470Z,24.94
2024-01-11T00:35:14.292Z,24.80
2024-01-11T00:37:44.020Z,24.85
2024-01-11T00:40:14.179Z,25.11
2024-01-11T00:42:44.061Z,25.15
2024-01-11T00:45:13.811Z,25.25
2024-01-11T00:47:43.691Z,25.27
2024-01-11T00:50:13.632Z,25.31
2024-01-11T00:52:43.370Z,25.29
2024-01-11T00:55:13.104Z,25.19
2024-01-11T00:57:42.906Z,25.88
2024-01-11T01:00:17.139Z,25.57
2024-01-11T01:02:47.008Z,25.56
2024-01-11T01:05:16.900Z,25.96
2024-01-11T01:07:48.730Z,25.91
2024-01-11T01:10:18.483Z,25.94
2024-01-11T01:12:48.256Z,26.08
2024-01-11T01:15:18.070Z,25.80
2024-01-11T01:18:06.294Z,26.11
2024-01-11T01:20:39.107Z,25.93
2024-01-11T01:23:08.941Z,26.24
2024-01-11T01:25:38.756Z,26.06
2024-01-11T01:28:08.618Z,26.07
2024-01-11T01:30:38.315Z,26.49
2024-01-11T01:33:08.329Z,26.20
2024-01-11T01:35:38.692Z,25.97
2024-01-11T01:38:08.373Z,26.09
2024-01-11T01:40:38.031Z,26.14
2024-01-11T01:43:13.330Z,26.42
2024-01-11T01:45:43.056Z,26.61
2024-01-11T01:48:12.930Z,26.58
2024-01-11T01:50:42.744Z,26.33
2024-01-11T01:53:12.641Z,26.82
2024-01-11T01:55:45.479Z,27.17
2024-01-11T01:58:15.774Z,26.91
2024-01-11T02:00:46.108Z,27.08
2024-01-11T02:03:15.839Z,27.11
2024-01-11T02:05:45.978Z,26.90
2024-01-11T02:08:19.547Z,26.52
2024-01-11T02:10:49.450Z,26.29
2024-01-11T02:13:19.168Z,26.13
2024-01-11T02:15:49.117Z,26.11
2024-01-11T02:18:18.992Z,25.97
2024-01-11T02:20:48.776Z,25.89
2024-01-11T02:23:20.655Z,25.54
2024-01-11T02:25:50.484Z,25.47
2024-01-11T02:28:20.615Z,25.71
2024-01-11T02:30:50.559Z,25.68
2024-01-11T02:33:21.447Z,25.63
2024-01-11T02:35:51.531Z,25.08
2024-01-11T02:38:21.472Z,25.19
2024-01-11T02:40:51.367Z,25.00
2024-01-11T02:43:21.440Z,25.10
2024-01-11T02:45:51.151Z,24.79
2024-01-11T02:48:20.894Z,24.66
2024-01-11T02:50:54.049Z,24.93
2024-01-11T02:53:23.780Z,24.79
2024-01-11T02:55:56.615Z,24.56
2024-01-11T02:58:26.290Z,24.46
2024-01-11T03:00:55.989Z,24.42
2024-01-11T03:03:25.764Z,24.29
2024-01-11T03:05:55.683Z,24.31
2024-01-11T03:08:25.534Z,24.31
2024-01-11T03:10:55.320Z,24.16
2024-01-11T03:13:25.936Z,24.25
2024-01-11T03:15:56.351Z,24.25
2024-01-11T03:18:26.139Z,24.42
2024-01-11T03:20:55.885Z,24.25
2024-01-11T03:23:25.726Z,24.22
2024-01-11T03:25:55.458Z,24.44
2024-01-11T03:28:25.150Z,24.56
2024-01-11T03:30:54.925Z,24.41
2024-01-11T03:33:24.915Z,24.19
2024-01-11T03:35:55.318Z,24.52
2024-01-11T03:38:25.110Z,24.14
2024-01-11T03:40:54.903Z,24.50
2024-01-11T03:43:24.684Z,24.43
2024-01-11T03:45:54.510Z,24.50
2024-01-11T03:48:25.063Z,24.33
2024-01-11T03:50:54.845Z,24.69
2024-01-11T03:53:24.624Z,24.55
2024-01-11T03:55:54.498Z,24.69
2024-01-11T03:58:24.673Z,24.68
2024-01-11T04:00:54.498Z,24.55
2024-01-11T04:03:24.258Z,24.57
2024-01-11T04:05:54.124Z,24.56
2024-01-11T04:08:23.945Z,24.29
2024-01-11T04:10:54.291Z,24.18
2024-01-11T04:13:25.499Z,24.27
2024-01-11T04:15:55.404Z,24.38
2024-01-11T04:18:25.179Z,24.34
2024-01-11T04:20:55.052Z,24.20
2024-01-11T04:23:24.831Z,24.20
2024-01-11T04:25:57.386Z,24.29
2024-01-11T04:28:27.154Z,24.06
2024-01-11T04:30:57.063Z,24.09
2024-01-11T04:33:27.204Z,24.41
2024-01-11T04:35:57.148Z,24.25
2024-01-11T04:38:26.911Z,24.04
2024-01-11T04:40:56.717Z,23.91
2024-01-11T04:43:26.484Z,24.20
2024-01-11T04:45:56.178Z,24.18
2024-01-11T04:48:25.971Z,24.01
2024-01-11T04:50:55.825Z,23.97
2024-01-11T04:53:25.610Z,23.84
2024-01-11T04:55:55.340Z,24.07
2024-01-11T04:58:25.075Z,23.99
2024-01-11T05:00:54.839Z,23.82
2024-01-11T05:03:24.550Z,23.94
2024-01-11T05:05:54.329Z,24.35
2024-01-11T05:08:27.186Z,24.47
2024-01-11T05:10:59.773Z,24.45
2024-01-11T05:13:29.516Z,24.36
2024-01-11T05:15:59.306Z,24.39
2024-01-11T05:18:30.569Z,24.64
2024-01-11T05:21:01.983Z,24.52
2024-01-11T05:23:31.717Z,24.45
2024-01-11T05:26:01.425Z,24.61
2024-01-11T05:28:31.159Z,24.43
2024-01-11T05:31:00.976Z,24.42
2024-01-11T05:33:30.807Z,24.48
2024-01-11T05:36:00.514Z,24.59
2024-01-11T05:38:30.380Z,24.65
2024-01-11T05:41:00.144Z,24.32
2024-01-11T05:43:30.010Z,24.42
2024-01-11T05:45:59.771Z,24.58
2024-01-11T05:48:29.667Z,24.53
2024-01-11T05:50:59.488Z,24.34
2024-01-11T05:53:30.164Z,24.25
2024-01-11T05:55:59.971Z,24.73
2024-01-11T05:58:29.703Z,24.39
2024-01-11T06:00:59.804Z,24.24
2024-01-11T06:03:30.781Z,24.33
2024-01-11T06:06:00.695Z,24.44
2024-01-11T06:08:31.376Z,24.31
2024-01-11T06:11:01.725Z,24.24
2024-01-11T06:13:31.549Z,24.38
2024-01-11T06:16:01.354Z,24.41
2024-01-11T06:18:31.269Z,24.51
2024-01-11T06:21:01.278Z,24.12
2024-01-11T06:23:31.070Z,23.90
2024-01-11T06:26:00.865Z,24.29
2024-01-11T06:28:31.719Z,24.23
2024-01-11T06:31:02.555Z,24.32
2024-01-11T06:33:32.579Z,24.55
2024-01-11T06:36:02.497Z,24.46
2024-01-11T06:38:32.213Z,24.34
2024-01-11T06:41:02.295Z,24.58
2024-01-11T06:43:32.054Z,24.57
2024-01-11T06:46:08.966Z,24.56
2024-01-11T06:48:38.840Z,24.60
2024-01-11T06:51:08.746Z,24.63
2024-01-11T06:53:40.329Z,25.10
2024-01-11T06:56:23.636Z,24.74
2024-01-11T06:58:54.465Z,24.72
2024-01-11T07:01:27.264Z,24.70
2024-01-11T07:03:57.033Z,24.83
2024-01-11T07:06:26.981Z,24.78
2024-01-11T07:08:59.314Z,24.78
2024-01-11T07:11:29.088Z,24.86
2024-01-11T07:13:58.973Z,24.97
2024-01-11T07:16:28.740Z,24.85
2024-01-11T07:18:58.536Z,24.99
2024-01-11T07:21:37.177Z,25.08
2024-01-11T07:24:07.733Z,25.03
2024-01-11T07:26:37.593Z,25.11
2024-01-11T07:29:08.358Z,25.22
2024-01-11T07:31:38.184Z,24.92
2024-01-11T07:34:08.030Z,25.03
2024-01-11T07:36:37.766Z,24.95
2024-01-11T07:39:08.590Z,24.95
2024-01-11T07:41:38.532Z,24.94
2024-01-11T07:44:08.390Z,25.23
2024-01-11T07:46:42.773Z,25.37
2024-01-11T07:49:20.026Z,25.39
2024-01-11T07:51:49.851Z,25.45
2024-01-11T07:54:19.540Z,25.35
2024-01-11T07:56:49.620Z,25.42
2024-01-11T07:59:19.716Z,25.46
2024-01-11T08:01:51.068Z,25.69
2024-01-11T08:04:20.702Z,25.76
2024-01-11T08:06:50.423Z,25.66
2024-01-11T08:09:20.845Z,25.38
2024-01-11T08:11:51.858Z,25.47
2024-01-11T08:14:22.367Z,25.41
2024-01-11T08:16:52.130Z,25.22
2024-01-11T08:19:21.874Z,25.27
2024-01-11T08:21:51.684Z,25.55
2024-01-11T08:24:41.584Z,25.39
2024-01-11T08:27:11.317Z,25.96
2024-01-11T08:29:41.259Z,25.87
2024-01-11T08:32:19.675Z,26.01
2024-01-11T08:34:59.927Z,26.04
2024-01-11T08:37:30.020Z,25.80
2024-01-11T08:39:59.738Z,26.08
2024-01-11T08:42:29.449Z,26.08
2024-01-11T08:45:00.191Z,26.10
2024-01-11T08:47:31.259Z,26.24
2024-01-11T08:50:01.199Z,26.05
2024-01-11T08:52:31.827Z,26.18
2024-01-11T08:55:01.536Z,26.23
2024-01-11T08:57:31.589Z,26.27
2024-01-11T09:00:01.300Z,26.17
2024-01-11T09:02:31.034Z,26.12
2024-01-11T09:05:00.855Z,26.20
2024-01-11T09:07:30.743Z,26.28
2024-01-11T09:10:00.409Z,26.57
2024-01-11T09:12:30.100Z,26.23
2024-01-11T09:14:59.929Z,26.26
2024-01-11T09:17:29.669Z,26.12
2024-01-11T09:19:59.540Z,26.43
2024-01-11T09:22:29.446Z,26.16
2024-01-11T09:24:59.149Z,26.05
2024-01-11T09:27:28.883Z,26.18
2024-01-11T09:29:58.566Z,26.40
2024-01-11T09:32:28.500Z,26.19
2024-01-11T09:34:58.296Z,26.20
2024-01-11T09:37:28.495Z,26.31
2024-01-11T09:39:58.293Z,26.33
2024-01-11T09:42:28.446Z,26.20
2024-01-11T09:44:58.455Z,26.31
2024-01-11T09:47:28.149Z,26.17
2024-01-11T09:49:58.116Z,26.10
2024-01-11T09:52:28.231Z,26.39
2024-01-11T09:54:58.021Z,26.50
2024-01-11T09:57:35.402Z,26.39
2024-01-11T10:00:10.119Z,26.23
2024-01-11T10:02:39.810Z,26.30
2024-01-11T10:05:11.017Z,26.52
2024-01-11T10:07:41.343Z,26.17
2024-01-11T10:10:11.615Z,26.30
2024-01-11T10:12:41.487Z,26.43
2024-01-11T10:15:16.093Z,26.23
2024-01-11T10:17:49.510Z,26.38
2024-01-11T10:20:26.494Z,26.22
2024-01-11T10:22:56.314Z,26.19
2024-01-11T10:25:26.069Z,26.41
2024-01-11T10:27:55.793Z,26.33
2024-01-11T10:30:27.356Z,26.44
2024-01-11T10:32:57.702Z,26.23
2024-01-11T10:35:27.818Z,26.13
2024-01-11T10:37:57.580Z,26.37
2024-01-11T10:40:28.117Z,26.48
2024-01-11T10:42:58.138Z,26.36
2024-01-11T10:45:27.805Z,26.33
2024-01-11T10:48:07.370Z,26.64
2024-01-11T10:50:44.258Z,26.57
2024-01-11T10:53:46.313Z,26.43
2024-01-11T10:56:16.613Z,26.50
2024-01-11T10:58:47.056Z,26.28
2024-01-11T11:01:17.076Z,26.47
2024-01-11T11:03:47.400Z,26.40
2024-01-11T11:06:17.460Z,26.68
2024-01-11T11:08:47.291Z,26.56
2024-01-11T11:11:17.074Z,26.57
2024-01-11T11:13:46.831Z,26.69
2024-01-11T11:16:18.898Z,26.88
2024-01-11T11:18:48.718Z,26.66
2024-01-11T11:21:18.831Z,26.53
2024-01-11T11:23:49.324Z,26.59
2024-01-11T11:26:23.037Z,26.58
2024-01-11T11:28:53.753Z,26.39
2024-01-11T11:31:39.855Z,26.68
2024-01-11T11:34:09.158Z,26.91
2024-01-11T11:36:38.943Z,26.49
2024-01-11T11:39:08.642Z,26.60
2024-01-11T11:41:38.358Z,26.45
2024-01-11T11:44:08.394Z,26.55
2024-01-11T11:46:38.190Z,26.39
2024-01-11T11:49:07.919Z,26.69
2024-01-11T11:51:37.644Z,26.65
2024-01-11T11:54:07.459Z,26.45
2024-01-11T11:56:37.222Z,26.77
2024-01-11T11:59:07.064Z,26.39
2024-01-11T12:01:36.806Z,26.74
2024-01-11T12:04:06.651Z,26.40
2024-01-11T12:06:36.620Z,26.62
2024-01-11T12:09:06.388Z,26.52
2024-01-11T12:11:36.147Z,26.43
2024-01-11T12:14:05.904Z,26.70
2024-01-11T12:16:35.678Z,26.61
2024-01-11T12:19:05.493Z,26.68
2024-01-11T12:21:35.179Z,26.60
2024-01-11T12:24:04.922Z,26.67
2024-01-11T12:26:34.611Z,26.85
2024-01-11T12:29:04.944Z,26.73
2024-01-11T12:31:34.753Z,26.62
2024-01-11T12:34:05.026Z,26.73
2024-01-11T12:36:34.745Z,26.77
2024-01-11T12:39:06.757Z,26.77
2024-01-11T12:41:36.532Z,26.68
2024-01-11T12:44:06.419Z,26.61
2024-01-11T12:46:36.373Z,26.93
2024-01-11T12:49:06.208Z,26.67
2024-01-11T12:51:35.955Z,26.81
2024-01-11T12:54:07.168Z,26.59
2024-01-11T12:56:36.946Z,26.78
2024-01-11T12:59:11.327Z,26.80
2024-01-11T13:01:44.042Z,26.95
2024-01-11T13:04:13.999Z,26.55
2024-01-11T13:06:43.709Z,26.63
2024-01-11T13:09:13.461Z,26.68
2024-01-11T13:11:43.476Z,26.78
2024-01-11T13:14:21.394Z,26.74
2024-01-11T13:16:51.389Z,26.73
2024-01-11T13:19:27.022Z,26.86
2024-01-11T13:21:57.484Z,26.39
2024-01-11T13:24:27.125Z,26.83
2024-01-11T13:26:58.056Z,26.83
2024-01-11T13:29:28.106Z,26.96
2024-01-11T13:31:57.890Z,26.86
2024-01-11T13:34:27.631Z,26.65
2024-01-11T13:36:57.298Z,26.73
2024-01-11T13:39:28.127Z,26.80
2024-01-11T13:41:57.818Z,26.78
2024-01-11T13:44:27.534Z,27.03
2024-01-11T13:46:57.246Z,26.71
2024-01-11T13:49:27.747Z,26.71
2024-01-11T13:52:01.276Z,26.95
2024-01-11T13:54:31.830Z,27.01
2024-01-11T13:57:01.549Z,26.77
2024-01-11T13:59:31.336Z,26.87
2024-01-11T14:02:01.057Z,26.77
2024-01-11T14:04:30.713Z,26.63
2024-01-11T14:07:00.468Z,26.78
2024-01-11T14:09:30.522Z,26.83
2024-01-11T14:12:00.163Z,26.96
2024-01-11T14:14:29.878Z,26.78
2024-01-11T14:17:00.061Z,26.86
2024-01-11T14:19:30.913Z,26.73
2024-01-11T14:22:00.723Z,26.84
2024-01-11T14:24:36.236Z,26.79
2024-01-11T14:27:07.101Z,26.96
2024-01-11T14:29:36.866Z,26.95
2024-01-11T14:32:06.732Z,26.88
2024-01-11T14:34:36.600Z,26.96
2024-01-11T14:37:06.431Z,26.92
2024-01-11T14:39:36.479Z,26.72
2024-01-11T14:42:06.360Z,26.77
2024-01-11T14:44:36.106Z,26.87
2024-01-11T14:47:06.544Z,26.89
2024-01-11T14:49:36.519Z,27.10
2024-01-11T14:52:07.357Z,26.93
2024-01-11T14:54:37.023Z,26.98
2024-01-11T14:57:07.739Z,27.09
2024-01-11T14:59:37.397Z,27.01
2024-01-11T15:02:07.341Z,27.09
2024-01-11T15:04:37.152Z,26.93
2024-01-11T15:07:07.725Z,27.05
2024-01-11T15:09:42.027Z,27.21
2024-01-11T15:12:12.341Z,27.47
2024-01-11T15:14:42.178Z,27.05
2024-01-11T15:17:12.189Z,26.97
2024-01-11T15:19:44.103Z,26.86
2024-01-11T15:22:16.461Z,27.02
2024-01-11T15:24:46.262Z,27.03
2024-01-11T15:27:17.723Z,27.10
2024-01-11T15:29:47.591Z,27.10
2024-01-11T15:32:17.534Z,27.18
2024-01-11T15:34:47.441Z,27.06
2024-01-11T15:37:17.300Z,27.15
2024-01-11T15:39:47.077Z,27.25
2024-01-11T15:42:17.188Z,27.00
2024-01-11T15:44:47.028Z,27.29
2024-01-11T15:47:16.942Z,27.29
2024-01-11T15:49:47.177Z,27.06
2024-01-11T15:52:16.919Z,27.08
2024-01-11T15:54:46.616Z,27.16
2024-01-11T15:57:17.798Z,27.20
2024-01-11T15:59:49.040Z,27.23
2024-01-11T16:02:18.838Z,27.18
2024-01-11T16:04:48.521Z,27.19
2024-01-11T16:07:18.979Z,27.39
2024-01-11T16:09:48.785Z,27.17
2024-01-11T16:12:18.527Z,27.23
2024-01-11T16:14:48.320Z,27.21
2024-01-11T16:17:18.024Z,27.31
2024-01-11T16:19:47.666Z,27.45
2024-01-11T16:22:18.130Z,27.26
2024-01-11T16:24:47.825Z,27.29
2024-01-11T16:27:17.581Z,27.28
2024-01-11T16:29:47.448Z,27.43
2024-01-11T16:32:18.047Z,27.35
2024-01-11T16:34:48.553Z,27.45
2024-01-11T16:37:22.952Z,27.34
2024-01-11T16:39:52.555Z,27.16
2024-01-11T16:42:22.661Z,27.60
2024-01-11T16:44:52.593Z,27.35
2024-01-11T16:47:22.824Z,27.25
2024-01-11T16:49:52.559Z,27.57
2024-01-11T16:52:23.428Z,27.11
2024-01-11T16:54:53.121Z,27.25
2024-01-11T16:57:22.744Z,27.44
2024-01-11T16:59:52.454Z,27.34
2024-01-11T17:02:25.063Z,27.47
2024-01-11T17:04:54.762Z,27.37
2024-01-11T17:07:24.435Z,27.38
2024-01-11T17:09:54.094Z,27.51
2024-01-11T17:12:23.832Z,27.46
2024-01-11T17:14:57.478Z,27.49
2024-01-11T17:17:27.755Z,27.31
2024-01-11T17:19:57.882Z,27.42
2024-01-11T17:22:27.594Z,27.18
2024-01-11T17:25:00.335Z,27.29
2024-01-11T17:27:30.032Z,27.19
2024-01-11T17:29:59.878Z,27.47
2024-01-11T17:32:30.273Z,27.54
2024-01-11T17:35:00.316Z,27.54
2024-01-11T17:37:30.790Z,27.39
2024-01-11T17:40:00.587Z,27.35
2024-01-11T17:42:30.333Z,27.39
2024-01-11T17:45:00.565Z,27.20
2024-01-11T17:47:30.429Z,27.33
2024-01-11T17:50:00.230Z,27.23
2024-01-11T17:52:31.705Z,27.35
2024-01-11T17:55:01.546Z,27.46
2024-01-11T17:57:32.395Z,27.73
2024-01-11T18:00:02.300Z,27.16
2024-01-11T18:02:32.116Z,27.21
2024-01-11T18:05:02.569Z,27.45
2024-01-11T18:07:32.336Z,27.36
2024-01-11T18:10:01.977Z,27.40
2024-01-11T18:12:31.728Z,27.28
2024-01-11T18:15:01.585Z,27.30
2024-01-11T18:17:31.598Z,27.42
2024-01-11T18:20:01.369Z,27.42
2024-01-11T18:22:33.079Z,27.37
2024-01-11T18:25:02.895Z,27.32
2024-01-11T18:27:32.550Z,27.35
2024-01-11T18:30:02.448Z,27.22
2024-01-11T18:32:32.595Z,27.06
2024-01-11T18:35:02.280Z,27.18
2024-01-11T18:37:32.311Z,27.16
2024-01-11T18:40:02.838Z,27.11
2024-01-11T18:42:33.067Z,27.26
2024-01-11T18:45:02.888Z,27.14
2024-01-11T18:47:34.296Z,27.37
2024-01-11T18:50:04.536Z,27.22
2024-01-11T18:52:34.186Z,27.25
2024-01-11T18:55:12.591Z,27.21
2024-01-11T18:57:47.078Z,27.36
2024-01-11T19:00:17.017Z,27.18
2024-01-11T19:02:48.353Z,27.20
2024-01-11T19:05:19.652Z,27.22
2024-01-11T19:07:49.715Z,27.18
2024-01-11T19:10:20.515Z,27.13
2024-01-11T19:12:50.265Z,27.12
2024-01-11T19:15:20.352Z,27.08
2024-01-11T19:17:50.977Z,27.12
2024-01-11T19:20:21.739Z,26.96
2024-01-11T19:22:51.512Z,27.16
2024-01-11T19:25:21.325Z,27.04
2024-01-11T19:27:51.560Z,27.03
2024-01-11T19:30:21.588Z,27.11
2024-01-11T19:32:51.382Z,27.11
2024-01-11T19:35:21.215Z,27.11
2024-01-11T19:37:50.967Z,26.93
2024-01-11T19:40:20.682Z,26.88
2024-01-11T19:42:50.430Z,26.91
2024-01-11T19:45:20.091Z,26.96
2024-01-11T19:47:50.132Z,27.01
2024-01-11T19:50:20.029Z,27.03
2024-01-11T19:52:51.585Z,26.83
2024-01-11T19:55:21.905Z,27.04
2024-01-11T19:57:51.639Z,27.03
2024-01-11T20:00:21.421Z,26.62
2024-01-11T20:02:52.243Z,26.71
2024-01-11T20:05:22.051Z,26.79
2024-01-11T20:07:51.892Z,26.81
2024-01-11T20:10:21.536Z,26.89
2024-01-11T20:12:51.157Z,26.81
2024-01-11T20:15:20.975Z,26.76
2024-01-11T20:17:51.956Z,26.47
2024-01-11T20:20:21.877Z,26.35
2024-01-11T20:22:51.530Z,26.44
2024-01-11T20:25:21.280Z,26.43
2024-01-11T20:27:51.030Z,26.31
2024-01-11T20:30:20.696Z,26.49
2024-01-11T20:32:50.573Z,26.54
2024-01-11T20:35:20.486Z,26.58
2024-01-11T20:37:50.163Z,26.52
2024-01-11T20:40:19.988Z,26.56
2024-01-11T20:42:49.714Z,26.46
2024-01-11T20:45:19.568Z,26.14
2024-01-11T20:47:49.529Z,26.22
2024-01-11T20:50:19.960Z,26.41
2024-01-11T20:52:49.626Z,26.44
2024-01-11T20:55:19.321Z,26.30
2024-01-11T20:57:48.951Z,26.28
2024-01-11T21:00:21.362Z,26.50
2024-01-11T21:02:52.846Z,26.16
2024-01-11T21:05:23.054Z,26.42
2024-01-11T21:07:53.414Z,25.09
2024-01-11T21:10:23.268Z,23.22
2024-01-11T21:12:52.961Z,22.05
2024-01-11T21:15:22.687Z,21.11
2024-01-11T21:17:52.535Z,19.83
2024-01-11T21:20:22.342Z,19.91
2024-01-11T21:22:52.062Z,19.65
2024-01-11T21:25:22.920Z,20.16
2024-01-11T21:27:52.712Z,19.61
2024-01-11T21:30:22.486Z,19.57
2024-01-11T21:32:52.309Z,19.41
2024-01-11T21:35:22.107Z,19.59
2024-01-11T21:37:51.752Z,19.07
2024-01-11T21:40:21.649Z,18.94
2024-01-11T21:42:51.393Z,19.12
2024-01-11T21:45:21.075Z,18.83
2024-01-11T21:47:52.422Z,19.40
2024-01-11T21:50:22.634Z,20.44
2024-01-11T21:52:52.286Z,20.35
2024-01-11T21:55:21.957Z,20.36
2024-01-11T21:57:53.152Z,19.97
2024-01-11T22:00:23.366Z,19.46
2024-01-11T22:02:53.136Z,19.33
2024-01-11T22:05:22.932Z,18.81
2024-01-11T22:07:52.709Z,18.87
2024-01-11T22:10:22.324Z,18.76
2024-01-11T22:12:52.212Z,18.75
2024-01-11T22:15:21.896Z,18.74
2024-01-11T22:17:51.776Z,18.61
2024-01-11T22:20:21.698Z,18.28
2024-01-11T22:22:51.513Z,18.11
2024-01-11T22:25:21.253Z,17.67
2024-01-11T22:27:52.098Z,17.56
2024-01-11T22:30:22.049Z,18.03
2024-01-11T22:32:51.972Z,17.84
2024-01-11T22:35:22.052Z,17.56
2024-01-11T22:37:51.705Z,17.46
2024-01-11T22:40:21.509Z,17.53
2024-01-11T22:42:51.255Z,17.57
2024-01-11T22:45:21.393Z,17.53
2024-01-11T22:47:51.223Z,17.33
2024-01-11T22:50:21.000Z,17.17
2024-01-11T22:52:50.719Z,17.65
2024-01-11T22:55:20.496Z,17.73
2024-01-11T22:57:54.286Z,17.95
2024-01-11T23:00:24.723Z,18.61
2024-01-11T23:02:55.027Z,19.25
2024-01-11T23:05:24.977Z,19.69
2024-01-11T23:07:54.762Z,19.67
2024-01-11T23:10:24.453Z,19.24
2024-01-11T23:12:54.098Z,18.57
2024-01-11T23:15:23.840Z,18.52
2024-01-11T23:17:53.834Z,18.53
2024-01-11T23:23:54.630Z,19.05
2024-01-11T23:30:11.166Z,19.29
2024-01-11T23:38:43.779Z,18.11
2024-01-11T23:41:19.689Z,18.54
2024-01-11T23:44:10.479Z,18.50
2024-01-11T23:49:57.923Z,18.17
2024-01-11T23:52:27.671Z,18.14
2024-01-11T23:54:57.653Z,18.25
2024-01-11T23:57:27.286Z,18.54
2024-01-11T23:59:57.508Z,18.33
